Time;durP1;ratioP1;P1;durP2;ratioP2;P2;SDS_P1;SDS_P2;PMS_P1;PMS_P2;Temp;Humidity;BMP_temperature;BMP_pressure;BME280_temperature;BME280_humidity;BME280_pressure;Samples;Min_cycle;Max_cycle;Signal;HPM_P1;HPM_P2
2022/07/20 00:01:22;;;;;;;12.63;6.28;;;29.70;62.80;;;;;;5053114;28;20524;-71
2022/07/20 00:03:48;;;;;;;7.85;6.30;;;29.80;62.30;;;;;;5053066;28;20461;-73
2022/07/20 00:06:14;;;;;;;9.15;6.20;;;29.80;62.10;;;;;;5052641;28;20469;-72
2022/07/20 00:11:24;;;;;;;11.15;6.38;;;29.70;61.90;;;;;;5051998;28;20036;-73
2022/07/20 00:13:52;;;;;;;13.18;6.30;;;29.70;62.50;;;;;;5052570;28;20021;-74
2022/07/20 00:16:19;;;;;;;13.18;6.10;;;29.70;61.80;;;;;;5034754;28;20064;-75
2022/07/20 00:18:45;;;;;;;9.27;6.32;;;29.70;61.70;;;;;;5052590;28;20056;-73
2022/07/20 00:21:11;;;;;;;10.15;6.38;;;29.70;61.40;;;;;;5055468;28;20021;-72
2022/07/20 00:23:36;;;;;;;10.85;5.70;;;29.60;61.20;;;;;;5056559;28;20367;-72
2022/07/20 00:26:02;;;;;;;8.70;6.10;;;29.60;60.80;;;;;;5056584;28;20434;-73
2022/07/20 00:28:28;;;;;;;12.48;6.45;;;29.60;60.50;;;;;;5056649;28;20025;-74
2022/07/20 00:30:54;;;;;;;9.90;5.88;;;29.60;60.30;;;;;;5056604;28;20079;-73
2022/07/20 00:33:19;;;;;;;11.35;5.93;;;29.60;59.90;;;;;;5056493;28;20025;-76
2022/07/20 00:35:45;;;;;;;9.27;5.85;;;29.50;59.40;;;;;;5056080;28;20029;-74
2022/07/20 00:38:11;;;;;;;10.82;5.57;;;29.50;59.40;;;;;;5056237;28;20068;-70
2022/07/20 00:40:36;;;;;;;10.43;6.40;;;29.50;59.10;;;;;;5056095;28;20029;-72
2022/07/20 00:43:02;;;;;;;9.48;4.95;;;29.40;58.70;;;;;;5055973;28;20454;-71
2022/07/20 00:45:28;;;;;;;11.95;5.60;;;29.40;58.50;;;;;;5056161;28;20454;-71
2022/07/20 00:47:53;;;;;;;9.43;5.03;;;29.40;58.20;;;;;;5056117;28;20147;-71
2022/07/20 00:50:19;;;;;;;7.22;5.47;;;29.30;58.10;;;;;;5055872;28;20033;-71
2022/07/20 00:52:45;;;;;;;8.82;5.05;;;29.30;58.00;;;;;;5055776;28;20086;-71
2022/07/20 00:55:11;;;;;;;9.73;5.10;;;29.20;57.80;;;;;;5055915;28;20029;-71
2022/07/20 00:57:37;;;;;;;8.63;4.80;;;29.20;57.30;;;;;;5055665;28;20124;-70
2022/07/20 01:00:06;;;;;;;10.13;5.32;;;29.20;57.10;;;;;;5056628;28;20064;-70
2022/07/20 01:02:32;;;;;;;8.50;5.05;;;29.30;56.90;;;;;;5055738;28;20021;-70
2022/07/20 01:04:57;;;;;;;9.63;4.90;;;29.20;56.50;;;;;;5055498;28;20075;-71
2022/07/20 01:07:23;;;;;;;9.43;5.18;;;29.20;56.90;;;;;;5055636;28;20025;-71
2022/07/20 01:09:50;;;;;;;9.70;4.97;;;29.10;56.60;;;;;;5055763;28;20112;-72
2022/07/20 01:12:15;;;;;;;10.23;4.85;;;29.10;56.50;;;;;;5054328;28;20017;-71
2022/07/20 01:14:42;;;;;;;8.30;5.18;;;29.10;56.40;;;;;;5055454;28;20025;-70
2022/07/20 01:17:08;;;;;;;8.93;4.82;;;29.10;56.50;;;;;;5055756;28;20082;-70
2022/07/20 01:19:33;;;;;;;9.20;5.07;;;29.10;56.50;;;;;;5055765;28;20029;-73
2022/07/20 01:21:59;;;;;;;7.65;4.85;;;29.10;56.30;;;;;;5055753;28;20108;-73
2022/07/20 01:24:25;;;;;;;15.70;5.72;;;29.10;56.20;;;;;;5055673;28;20432;-72
2022/07/20 01:26:51;;;;;;;8.48;4.95;;;29.10;56.20;;;;;;5053848;28;20489;-72
2022/07/20 01:29:17;;;;;;;9.57;4.50;;;29.10;56.30;;;;;;5053709;28;20036;-74
2022/07/20 01:31:43;;;;;;;9.55;5.20;;;29.10;56.20;;;;;;5054974;28;20115;-74
2022/07/20 01:34:08;;;;;;;9.75;4.70;;;29.10;56.20;;;;;;5055340;28;20025;-72
2022/07/20 01:36:34;;;;;;;7.13;4.53;;;29.00;56.10;;;;;;5037375;28;20037;-72
2022/07/20 01:39:00;;;;;;;7.88;4.30;;;29.00;56.00;;;;;;5055369;28;20100;-73
2022/07/20 01:41:25;;;;;;;10.98;5.00;;;29.00;56.30;;;;;;5055202;28;20025;-74
2022/07/20 01:43:51;;;;;;;7.93;4.60;;;28.90;56.00;;;;;;5055846;28;20420;-72
2022/07/20 01:46:17;;;;;;;7.75;5.05;;;28.90;56.10;;;;;;5055186;28;20021;-73
2022/07/20 01:48:43;;;;;;;8.80;4.80;;;28.80;56.00;;;;;;5055061;28;20235;-72
2022/07/20 01:51:09;;;;;;;12.88;5.15;;;28.80;56.10;;;;;;5055066;28;20079;-71
2022/07/20 01:53:35;;;;;;;6.95;4.63;;;28.70;56.00;;;;;;5055024;28;20354;-72
2022/07/20 01:56:01;;;;;;;9.82;4.53;;;28.60;55.80;;;;;;5054497;28;20555;-73
2022/07/20 01:58:27;;;;;;;7.05;4.60;;;28.60;55.70;;;;;;5053303;28;20021;-72
2022/07/20 02:00:53;;;;;;;6.30;4.07;;;28.60;55.90;;;;;;5054777;28;20025;-74
2022/07/20 02:03:19;;;;;;;7.88;4.55;;;28.50;55.80;;;;;;5054759;28;20032;-75
2022/07/20 02:05:45;;;;;;;9.73;4.53;;;28.50;55.80;;;;;;5054943;28;20474;-74
2022/07/20 02:08:11;;;;;;;8.65;4.55;;;28.50;56.10;;;;;;5054424;28;20029;-72
2022/07/20 02:10:37;;;;;;;8.40;4.80;;;28.40;56.10;;;;;;5054559;28;20048;-76
2022/07/20 02:13:03;;;;;;;10.10;4.53;;;28.60;56.00;;;;;;5054644;28;20051;-73
2022/07/20 02:18:13;;;;;;;7.15;5.22;;;28.60;55.70;;;;;;5054593;28;20161;-72
2022/07/20 02:20:40;;;;;;;9.00;5.38;;;28.70;56.30;;;;;;5054209;28;20024;-72
2022/07/20 02:23:08;;;;;;;10.43;5.55;;;28.60;56.80;;;;;;5052932;28;20382;-70
2022/07/20 02:25:36;;;;;;;9.55;5.30;;;28.60;56.80;;;;;;5054114;28;20492;-72
2022/07/20 02:28:05;;;;;;;7.85;5.05;;;28.50;57.00;;;;;;5054280;28;20024;-71
2022/07/20 02:30:30;;;;;;;8.90;4.80;;;28.50;56.90;;;;;;5054150;28;20367;-70
2022/07/20 02:32:56;;;;;;;7.78;4.90;;;28.50;56.90;;;;;;5054221;28;20023;-73
2022/07/20 02:35:22;;;;;;;9.05;6.18;;;28.50;56.80;;;;;;5053975;28;20033;-71
2022/07/20 02:37:47;;;;;;;8.15;5.40;;;28.50;57.00;;;;;;5053993;28;20347;-71
2022/07/20 02:40:13;;;;;;;7.25;5.53;;;28.50;57.20;;;;;;5054037;28;20055;-71
2022/07/20 02:42:39;;;;;;;10.75;6.65;;;28.50;57.90;;;;;;5052335;28;20079;-73
2022/07/20 02:45:05;;;;;;;10.35;6.15;;;28.50;59.30;;;;;;5053605;28;20029;-73
2022/07/20 02:47:31;;;;;;;8.15;6.40;;;28.40;60.70;;;;;;5054386;28;20039;-72
2022/07/20 02:49:57;;;;;;;8.07;6.50;;;28.30;61.80;;;;;;5054105;28;20025;-74
2022/07/20 02:52:22;;;;;;;10.23;6.97;;;28.20;62.60;;;;;;5053964;28;20060;-74
2022/07/20 02:54:48;;;;;;;16.48;7.22;;;28.20;63.80;;;;;;5053455;28;20040;-74
2022/07/20 02:57:14;;;;;;;21.10;7.40;;;28.10;65.00;;;;;;5053433;28;20528;-73
2022/07/20 02:59:39;;;;;;;12.55;7.05;;;28.00;66.10;;;;;;5053776;28;20024;-73
2022/07/20 03:02:05;;;;;;;12.10;7.15;;;28.00;66.50;;;;;;5054205;28;20028;-72
2022/07/20 03:04:31;;;;;;;11.60;7.18;;;28.00;67.00;;;;;;5053316;28;20025;-74
2022/07/20 03:06:56;;;;;;;12.07;7.32;;;28.00;66.70;;;;;;5053505;28;20142;-74
2022/07/20 03:09:22;;;;;;;9.15;6.47;;;28.00;67.10;;;;;;5053295;28;20542;-73
2022/07/20 03:11:48;;;;;;;8.90;6.75;;;27.90;67.60;;;;;;5053398;28;20458;-73
2022/07/20 03:14:14;;;;;;;11.35;5.90;;;27.90;67.40;;;;;;5053353;28;20055;-74
2022/07/20 03:16:39;;;;;;;11.30;6.40;;;27.90;67.10;;;;;;5051721;28;20037;-73
2022/07/20 03:19:05;;;;;;;9.05;6.45;;;28.00;66.30;;;;;;5053268;28;20017;-76
2022/07/20 03:21:31;;;;;;;8.10;6.00;;;28.00;65.80;;;;;;5052075;28;20090;-74
2022/07/20 03:23:56;;;;;;;8.77;6.72;;;28.00;65.70;;;;;;5053236;28;20025;-74
2022/07/20 03:26:22;;;;;;;9.45;6.65;;;28.00;65.50;;;;;;5053087;28;20025;-72
2022/07/20 03:28:48;;;;;;;15.65;6.22;;;28.00;65.70;;;;;;5053187;28;20491;-72
2022/07/20 03:31:13;;;;;;;11.55;6.88;;;28.00;65.40;;;;;;5052990;28;20463;-74
2022/07/20 03:33:39;;;;;;;9.25;6.45;;;28.00;65.20;;;;;;5053002;28;20021;-72
2022/07/20 03:36:05;;;;;;;9.93;6.25;;;28.00;65.30;;;;;;5052934;28;20036;-76
2022/07/20 03:38:31;;;;;;;8.10;5.88;;;27.90;64.60;;;;;;5053716;28;20048;-73
2022/07/20 03:40:57;;;;;;;8.13;5.25;;;28.00;64.40;;;;;;5053932;28;20487;-74
2022/07/20 03:43:25;;;;;;;9.18;5.72;;;27.90;64.00;;;;;;5052962;28;20021;-75
2022/07/20 03:45:52;;;;;;;10.43;5.43;;;27.90;63.30;;;;;;5053046;28;20033;-74
2022/07/20 03:48:18;;;;;;;7.95;5.80;;;27.90;62.70;;;;;;5053066;28;20055;-74
2022/07/20 03:50:46;;;;;;;8.18;5.45;;;27.70;62.00;;;;;;5053041;28;20378;-76
2022/07/20 03:53:12;;;;;;;12.00;5.38;;;27.70;61.60;;;;;;5053396;28;20040;-73
2022/07/20 03:55:38;;;;;;;9.32;5.70;;;27.70;61.60;;;;;;5074515;22;20047;-72
2022/07/20 03:58:04;;;;;;;11.95;5.55;;;27.70;61.20;;;;;;5077058;28;20024;-72
2022/07/20 04:00:30;;;;;;;10.90;5.40;;;27.70;61.20;;;;;;5077017;28;20047;-73
2022/07/20 04:02:56;;;;;;;8.40;5.40;;;27.70;60.70;;;;;;5076793;28;20022;-72
2022/07/20 04:05:22;;;;;;;8.98;5.30;;;27.70;60.50;;;;;;5076954;28;20120;-73
2022/07/20 04:07:48;;;;;;;11.20;5.43;;;27.60;60.10;;;;;;5076950;28;20092;-72
2022/07/20 04:10:14;;;;;;;10.75;5.35;;;27.60;59.90;;;;;;5076916;28;20355;-73
2022/07/20 04:12:40;;;;;;;9.02;5.10;;;27.60;60.00;;;;;;5076716;28;20495;-71
2022/07/20 04:15:06;;;;;;;10.35;4.95;;;27.60;59.80;;;;;;5058812;28;20039;-73
2022/07/20 04:17:32;;;;;;;8.60;5.45;;;27.60;60.00;;;;;;5076684;28;20024;-71
2022/07/20 04:19:58;;;;;;;16.65;5.63;;;27.70;60.10;;;;;;5076643;28;20025;-71
2022/07/20 04:22:23;;;;;;;9.35;5.70;;;27.60;59.90;;;;;;5076638;28;20035;-72
2022/07/20 04:24:49;;;;;;;12.82;5.72;;;27.60;60.00;;;;;;5076504;28;20021;-73
2022/07/20 04:27:15;;;;;;;9.25;4.95;;;27.60;60.00;;;;;;5076210;28;20059;-73
2022/07/20 04:29:40;;;;;;;9.73;5.10;;;27.50;60.20;;;;;;5076439;28;20021;-71
2022/07/20 04:32:06;;;;;;;10.43;5.40;;;27.50;60.30;;;;;;5076211;28;20037;-73
2022/07/20 04:34:32;;;;;;;12.48;5.47;;;27.50;60.00;;;;;;5076165;28;20040;-73
2022/07/20 04:36:58;;;;;;;9.43;5.38;;;27.50;60.00;;;;;;5076260;28;20033;-72
2022/07/20 04:39:24;;;;;;;9.15;5.32;;;27.50;59.90;;;;;;5058111;28;20036;-72
2022/07/20 04:41:49;;;;;;;9.75;5.75;;;27.50;60.00;;;;;;5075916;28;20020;-72
2022/07/20 04:44:15;;;;;;;8.25;5.65;;;27.60;60.00;;;;;;5076013;28;20048;-72
2022/07/20 04:46:41;;;;;;;12.88;5.60;;;27.60;60.00;;;;;;5075749;28;20541;-71
2022/07/20 04:49:09;;;;;;;10.65;5.65;;;27.60;60.00;;;;;;5075992;28;20032;-73
2022/07/20 04:51:35;;;;;;;8.43;5.25;;;27.60;60.10;;;;;;5076143;28;20203;-73
2022/07/20 04:54:01;;;;;;;10.05;5.97;;;27.60;60.00;;;;;;5075929;28;20489;-72
2022/07/20 04:56:27;;;;;;;8.05;5.47;;;27.60;60.00;;;;;;5075313;28;20525;-72
2022/07/20 04:58:54;;;;;;;12.60;5.38;;;27.60;60.20;;;;;;5057952;28;20119;-75
2022/07/20 05:01:22;;;;;;;12.88;6.00;;;27.50;60.10;;;;;;5076332;28;20021;-74
2022/07/20 05:03:48;;;;;;;6.63;5.05;;;27.60;60.20;;;;;;5078754;28;20082;-72
2022/07/20 05:06:14;;;;;;;7.18;5.38;;;27.50;60.20;;;;;;5077219;28;20041;-72
2022/07/20 05:08:40;;;;;;;9.88;5.63;;;27.60;60.10;;;;;;5075674;28;20052;-72
2022/07/20 05:11:06;;;;;;;9.80;5.18;;;27.50;59.70;;;;;;5075509;28;20118;-75
2022/07/20 05:13:32;;;;;;;8.57;5.35;;;27.50;59.80;;;;;;5057648;28;20461;-75
2022/07/20 05:15:57;;;;;;;8.75;5.72;;;27.50;60.10;;;;;;5075556;28;20036;-73
2022/07/20 05:18:23;;;;;;;10.27;5.82;;;27.50;60.20;;;;;;5075273;28;20025;-72
2022/07/20 05:20:49;;;;;;;9.85;6.00;;;27.60;60.00;;;;;;5075203;28;20020;-71
2022/07/20 05:23:14;;;;;;;9.48;5.70;;;27.90;59.80;;;;;;5075453;28;20028;-72
2022/07/20 05:25:40;;;;;;;11.43;5.35;;;28.20;59.30;;;;;;5075163;28;20017;-70
2022/07/20 05:28:06;;;;;;;8.20;5.32;;;28.50;58.40;;;;;;5075184;28;20038;-72
2022/07/20 05:30:32;;;;;;;9.68;5.70;;;28.80;57.70;;;;;;5075429;28;20020;-72
2022/07/20 05:32:58;;;;;;;16.05;6.25;;;29.20;56.80;;;;;;5075034;28;20035;-73
2022/07/20 05:35:24;;;;;;;16.13;5.82;;;29.50;55.80;;;;;;5075223;28;20353;-71
2022/07/20 05:37:50;;;;;;;12.30;5.18;;;29.80;55.20;;;;;;5074969;28;20499;-74
2022/07/20 05:40:16;;;;;;;9.70;5.35;;;30.10;54.80;;;;;;5075091;28;20039;-72
2022/07/20 05:42:42;;;;;;;9.00;5.00;;;30.50;53.90;;;;;;5074899;28;20035;-73
2022/07/20 05:45:08;;;;;;;7.90;4.88;;;30.70;53.20;;;;;;5074804;28;20107;-72
2022/07/20 05:47:34;;;;;;;11.40;5.50;;;30.70;52.20;;;;;;5075026;28;20020;-71
2022/07/20 05:50:00;;;;;;;10.43;5.45;;;30.90;52.50;;;;;;5075009;28;20032;-72
2022/07/20 05:52:25;;;;;;;9.75;5.55;;;31.10;52.20;;;;;;5074797;28;20017;-71
2022/07/20 05:54:51;;;;;;;16.40;5.60;;;31.30;51.80;;;;;;5074852;28;20058;-72
2022/07/20 05:57:17;;;;;;;10.43;5.47;;;31.60;51.10;;;;;;5074530;28;20493;-76
2022/07/20 05:59:43;;;;;;;10.23;5.43;;;31.90;50.30;;;;;;5074748;28;20513;-73
2022/07/20 06:02:09;;;;;;;11.15;4.80;;;32.10;50.10;;;;;;5074648;28;20029;-73
2022/07/20 06:04:35;;;;;;;11.10;5.10;;;32.20;49.90;;;;;;5056459;28;20480;-74
2022/07/20 06:07:01;;;;;;;9.63;5.50;;;32.40;49.40;;;;;;5074777;28;20013;-73
2022/07/20 06:09:27;;;;;;;10.55;5.10;;;32.60;49.10;;;;;;5074305;28;20564;-71
2022/07/20 06:11:52;;;;;;;19.85;5.32;;;32.80;48.80;;;;;;5074477;28;20020;-73
2022/07/20 06:14:18;;;;;;;14.20;5.25;;;33.00;48.40;;;;;;5074730;28;20020;-75
2022/07/20 06:16:44;;;;;;;12.40;5.80;;;33.10;48.10;;;;;;5056497;28;20071;-75
2022/07/20 06:19:09;;;;;;;18.98;5.57;;;33.10;48.00;;;;;;5055648;28;20032;-74
2022/07/20 06:21:36;;;;;;;15.25;5.25;;;33.20;48.10;;;;;;5074442;28;20028;-73
2022/07/20 06:24:02;;;;;;;17.92;6.25;;;33.20;47.70;;;;;;5074220;28;20060;-73
2022/07/20 06:26:27;;;;;;;14.10;5.25;;;33.40;47.40;;;;;;5074256;28;20469;-73
2022/07/20 06:28:53;;;;;;;15.40;5.50;;;33.60;47.00;;;;;;5074415;28;20092;-76
2022/07/20 06:31:19;;;;;;;13.77;5.65;;;33.90;46.70;;;;;;5074363;28;20033;-73
2022/07/20 06:33:44;;;;;;;12.90;5.80;;;34.10;46.20;;;;;;5074109;28;20024;-72
2022/07/20 06:36:10;;;;;;;14.50;5.30;;;34.30;45.80;;;;;;5074526;28;20040;-74
2022/07/20 06:38:36;;;;;;;24.23;6.13;;;34.50;45.30;;;;;;5074605;28;20053;-74
2022/07/20 06:41:02;;;;;;;15.90;5.40;;;34.50;45.10;;;;;;5074559;28;20111;-74
2022/07/20 06:43:28;;;;;;;13.55;5.13;;;34.50;44.90;;;;;;5056186;28;20115;-72
2022/07/20 06:45:54;;;;;;;17.15;5.53;;;34.60;45.00;;;;;;5074271;28;20024;-75
2022/07/20 06:48:19;;;;;;;15.55;5.70;;;34.80;44.60;;;;;;5074525;28;20032;-76
2022/07/20 06:50:46;;;;;;;15.20;5.18;;;34.90;44.30;;;;;;5073618;28;20033;-74
2022/07/20 06:53:12;;;;;;;9.93;5.20;;;34.80;44.30;;;;;;5074486;28;20021;-73
2022/07/20 06:55:38;;;;;;;14.63;5.60;;;34.60;44.40;;;;;;5058876;28;20059;-75
2022/07/20 06:58:06;;;;;;;13.63;6.35;;;34.70;44.40;;;;;;5056725;28;20016;-74
2022/07/20 07:00:32;;;;;;;11.48;5.15;;;34.80;44.80;;;;;;5074248;28;20028;-74
2022/07/20 07:02:57;;;;;;;10.38;5.22;;;34.90;44.00;;;;;;5055691;28;20436;-74
2022/07/20 07:05:23;;;;;;;15.05;4.90;;;34.90;43.40;;;;;;5074048;28;20013;-74
2022/07/20 07:07:49;;;;;;;11.88;5.80;;;34.90;43.50;;;;;;5075735;28;20107;-74
2022/07/20 07:10:14;;;;;;;15.00;4.78;;;35.10;43.30;;;;;;5081879;28;20021;-74
2022/07/20 07:12:40;;;;;;;13.50;4.88;;;35.20;43.50;;;;;;5088347;28;20036;-74
2022/07/20 07:15:06;;;;;;;13.90;5.38;;;35.30;43.00;;;;;;5080512;28;20140;-73
2022/07/20 07:17:33;;;;;;;13.98;5.18;;;35.40;43.20;;;;;;5055699;28;20067;-73
2022/07/20 07:19:59;;;;;;;12.38;5.88;;;35.60;42.50;;;;;;5073268;28;20111;-73
2022/07/20 07:22:26;;;;;;;13.90;5.10;;;35.50;42.00;;;;;;5073347;28;20037;-72
2022/07/20 07:24:53;;;;;;;19.10;5.88;;;35.60;41.80;;;;;;5072902;28;20035;-73
2022/07/20 07:27:19;;;;;;;13.95;5.85;;;35.60;41.80;;;;;;5073392;28;20095;-74
2022/07/20 07:29:45;;;;;;;10.68;4.53;;;35.70;41.60;;;;;;5073148;28;20051;-73
2022/07/20 07:32:10;;;;;;;12.13;4.82;;;35.80;41.50;;;;;;5073212;28;20031;-76
2022/07/20 07:34:36;;;;;;;12.63;4.88;;;35.80;40.80;;;;;;5073676;28;20028;-74
2022/07/20 07:37:03;;;;;;;11.48;4.95;;;35.80;40.30;;;;;;5074029;28;20486;-73
2022/07/20 07:39:29;;;;;;;17.38;5.85;;;35.90;40.90;;;;;;5073984;28;20025;-73
2022/07/20 07:41:55;;;;;;;15.63;5.35;;;36.00;40.00;;;;;;5073502;28;20076;-73
2022/07/20 07:44:21;;;;;;;12.25;5.13;;;35.90;40.00;;;;;;5073671;28;20029;-72
2022/07/20 07:46:46;;;;;;;11.63;4.50;;;35.80;40.10;;;;;;5073988;28;20054;-73
2022/07/20 07:49:13;;;;;;;11.38;5.72;;;35.90;40.30;;;;;;5074215;28;20056;-74
2022/07/20 07:51:39;;;;;;;14.75;5.45;;;35.80;39.90;;;;;;5073445;28;20020;-73
2022/07/20 07:54:06;;;;;;;9.05;5.10;;;35.70;39.50;;;;;;5073582;28;20098;-73
2022/07/20 07:56:31;;;;;;;10.65;5.68;;;35.60;39.90;;;;;;5073393;28;20091;-73
2022/07/20 07:58:57;;;;;;;12.48;6.13;;;35.60;40.00;;;;;;5073776;28;20052;-72
2022/07/20 08:01:24;;;;;;;14.93;4.95;;;35.40;39.90;;;;;;5073504;28;20490;-73
2022/07/20 08:03:51;;;;;;;12.07;5.10;;;35.50;40.30;;;;;;5073485;28;20377;-73
2022/07/20 08:06:16;;;;;;;11.98;5.03;;;35.50;40.40;;;;;;5073157;28;20024;-73
2022/07/20 08:08:42;;;;;;;11.10;4.80;;;35.40;39.80;;;;;;5073546;28;20025;-72
2022/07/20 08:11:08;;;;;;;16.83;5.00;;;35.40;40.10;;;;;;5073357;28;20024;-73
2022/07/20 08:13:34;;;;;;;12.30;5.10;;;35.40;40.00;;;;;;5055080;28;20377;-74
2022/07/20 08:16:00;;;;;;;11.57;5.15;;;35.40;39.70;;;;;;5072866;28;20029;-73
2022/07/20 08:18:25;;;;;;;11.25;4.47;;;35.30;39.70;;;;;;5055056;28;20354;-73
2022/07/20 08:20:51;;;;;;;18.30;5.03;;;35.40;40.00;;;;;;5073394;28;20028;-72
2022/07/20 08:23:17;;;;;;;14.32;5.40;;;35.30;39.30;;;;;;5072831;28;20481;-74
2022/07/20 08:25:43;;;;;;;12.05;4.65;;;35.20;39.10;;;;;;5073353;28;20027;-75
2022/07/20 08:28:21;;;;;;;7.30;3.95;;;35.10;39.30;;;;;;5073445;28;20039;-75
2022/07/20 08:30:49;;;;;;;8.23;4.30;;;35.10;39.60;;;;;;5073433;28;20056;-73
2022/07/20 08:33:15;;;;;;;9.25;4.28;;;35.00;38.80;;;;;;5073731;28;20082;-73
2022/07/20 08:35:42;;;;;;;11.07;4.88;;;34.90;38.60;;;;;;5073098;28;20056;-71
2022/07/20 08:38:09;;;;;;;10.63;4.53;;;34.80;38.40;;;;;;5073340;28;20536;-71
2022/07/20 08:40:36;;;;;;;19.58;5.05;;;34.80;38.00;;;;;;5073294;28;20464;-73
2022/07/20 08:43:02;;;;;;;13.40;5.28;;;34.70;37.90;;;;;;5076159;28;20419;-74
2022/07/20 08:45:28;;;;;;;11.10;4.50;;;34.60;37.70;;;;;;5076303;28;20150;-74
2022/07/20 08:47:57;;;;;;;11.60;4.70;;;34.50;37.80;;;;;;5076155;28;20028;-73
2022/07/20 08:50:29;;;;;;;12.98;4.60;;;34.60;38.20;;;;;;5075898;28;20067;-73
2022/07/20 08:52:56;;;;;;;15.30;5.13;;;34.50;38.40;;;;;;5076069;28;20100;-74
2022/07/20 08:55:23;;;;;;;9.85;4.57;;;34.50;38.60;;;;;;5075565;28;20040;-74
2022/07/20 08:57:49;;;;;;;13.90;4.70;;;34.40;38.70;;;;;;5075678;28;20499;-74
2022/07/20 09:00:15;;;;;;;13.93;5.60;;;34.30;39.40;;;;;;5075665;28;20554;-75
2022/07/20 09:02:48;;;;;;;12.80;5.10;;;34.30;39.30;;;;;;5075794;28;20472;-73
2022/07/20 09:05:14;;;;;;;22.88;5.53;;;34.30;39.30;;;;;;5075820;28;20543;-73
2022/07/20 09:07:42;;;;;;;17.30;6.13;;;34.30;39.70;;;;;;5075517;28;20021;-73
2022/07/20 09:10:14;;;;;;;6.63;4.65;;;34.20;39.10;;;;;;5057830;28;20029;-72
2022/07/20 09:12:54;;;;;;;7.80;4.72;;;34.20;39.50;;;;;;5075410;28;20131;-73
2022/07/20 09:15:35;;;;;;;12.00;4.88;;;34.20;39.90;;;;;;5075367;28;20036;-73
2022/07/20 09:18:12;;;;;;;14.75;4.88;;;34.20;39.80;;;;;;5075820;28;20033;-72
2022/07/20 09:20:41;;;;;;;27.20;5.75;;;34.30;39.70;;;;;;5075370;28;20051;-74
2022/07/20 09:23:12;;;;;;;18.15;5.60;;;34.30;39.50;;;;;;5075040;28;20060;-73
2022/07/20 09:25:48;;;;;;;12.32;4.93;;;34.30;39.60;;;;;;5074862;28;20032;-72
2022/07/20 09:28:14;;;;;;;19.88;5.50;;;34.30;39.80;;;;;;5075127;28;20048;-73
2022/07/20 09:30:40;;;;;;;66.85;7.80;;;34.30;40.20;;;;;;5074727;28;20534;-75
2022/07/20 09:33:05;;;;;;;15.23;5.03;;;34.30;40.10;;;;;;5074718;28;20119;-74
2022/07/20 09:35:35;;;;;;;12.18;4.72;;;34.20;40.00;;;;;;5074409;28;20112;-73
2022/07/20 09:38:03;;;;;;;8.40;4.72;;;34.20;40.30;;;;;;5075065;28;20038;-73
2022/07/20 09:40:43;;;;;;;8.63;4.80;;;34.20;40.20;;;;;;5074665;28;20036;-71
2022/07/20 09:43:44;;;;;;;17.58;4.80;;;34.20;40.00;;;;;;5074794;28;20056;-72
2022/07/20 09:46:10;;;;;;;12.32;4.65;;;34.20;40.50;;;;;;4973942;28;20540;-73
2022/07/20 09:48:52;;;;;;;9.45;4.72;;;34.30;40.90;;;;;;5053986;28;20060;-72
2022/07/20 09:51:27;;;;;;;12.25;4.97;;;34.30;41.70;;;;;;5074582;28;20450;-74
2022/07/20 09:54:04;;;;;;;11.50;4.65;;;34.30;41.40;;;;;;5074278;28;20021;-73
2022/07/20 09:56:31;;;;;;;9.48;4.60;;;34.40;40.00;;;;;;5074048;28;20048;-73
2022/07/20 09:58:59;;;;;;;7.35;4.60;;;34.40;40.50;;;;;;5074479;28;20474;-75
2022/07/20 10:01:27;;;;;;;9.52;4.82;;;34.40;40.70;;;;;;5074414;28;20327;-72
2022/07/20 10:03:56;;;;;;;12.70;4.80;;;34.50;40.90;;;;;;5074422;28;20078;-74
2022/07/20 10:06:26;;;;;;;13.10;4.35;;;34.50;40.80;;;;;;5074489;28;20108;-73
2022/07/20 10:08:53;;;;;;;8.77;4.72;;;34.50;40.60;;;;;;5056641;28;20031;-74
2022/07/20 10:11:20;;;;;;;8.35;3.85;;;34.50;40.80;;;;;;5074388;28;20039;-73
2022/07/20 10:13:50;;;;;;;11.05;4.68;;;34.60;40.80;;;;;;5074286;28;20056;-74
2022/07/20 10:16:35;;;;;;;9.02;4.18;;;34.60;41.20;;;;;;5074142;28;20089;-72
2022/07/20 10:19:03;;;;;;;9.82;4.60;;;34.60;41.50;;;;;;5074181;28;20020;-74
2022/07/20 10:21:42;;;;;;;8.43;4.60;;;34.60;40.40;;;;;;5073728;28;20047;-73
2022/07/20 10:24:14;;;;;;;9.20;4.38;;;34.60;40.10;;;;;;5074161;28;20117;-75
2022/07/20 10:26:40;;;;;;;11.18;4.53;;;34.70;39.90;;;;;;5074030;28;20508;-73
2022/07/20 10:29:06;;;;;;;8.18;4.22;;;34.60;40.10;;;;;;5073865;28;20025;-74
2022/07/20 10:31:59;;;;;;;11.05;4.30;;;34.70;40.20;;;;;;5073963;28;20035;-73
2022/07/20 10:34:37;;;;;;;11.48;4.45;;;34.70;40.90;;;;;;5056522;28;20032;-74
2022/07/20 10:37:24;;;;;;;9.07;4.32;;;34.80;40.00;;;;;;5073725;28;20036;-75
2022/07/20 10:40:11;;;;;;;8.43;4.00;;;34.80;40.20;;;;;;5073993;28;20033;-73
2022/07/20 10:42:44;;;;;;;11.25;4.13;;;34.90;40.20;;;;;;5074276;28;20029;-72
2022/07/20 10:45:27;;;;;;;8.07;3.97;;;34.90;39.80;;;;;;5055511;28;20119;-72
2022/07/20 10:48:11;;;;;;;11.88;5.00;;;35.00;39.20;;;;;;5073452;28;20032;-73
2022/07/20 10:50:54;;;;;;;7.65;4.07;;;35.10;38.70;;;;;;5073150;28;20040;-73
2022/07/20 10:53:26;;;;;;;10.05;4.18;;;35.20;37.60;;;;;;5073520;28;20028;-74
2022/07/20 10:55:58;;;;;;;9.88;4.20;;;35.20;37.20;;;;;;5054667;28;20056;-73
2022/07/20 10:58:32;;;;;;;7.43;4.53;;;35.30;36.80;;;;;;5073147;28;20565;-73
2022/07/20 11:01:01;;;;;;;10.30;4.28;;;35.40;36.30;;;;;;5073227;28;20531;-74
2022/07/20 11:03:37;;;;;;;6.32;3.85;;;35.40;36.00;;;;;;5073002;28;20025;-74
2022/07/20 11:06:10;;;;;;;7.30;4.13;;;35.50;35.60;;;;;;5072950;28;20032;-73
2022/07/20 11:08:57;;;;;;;8.63;4.32;;;35.50;35.40;;;;;;5073001;28;20021;-74
2022/07/20 11:11:34;;;;;;;11.82;4.32;;;35.50;35.00;;;;;;5055176;28;20107;-74
2022/07/20 11:14:03;;;;;;;7.63;4.07;;;35.50;35.00;;;;;;5073455;28;20032;-74
2022/07/20 11:16:29;;;;;;;7.03;3.83;;;35.60;34.80;;;;;;5073319;28;20033;-74
2022/07/20 11:18:56;;;;;;;10.75;4.60;;;35.60;34.40;;;;;;5056435;28;20024;-73
2022/07/20 11:21:57;;;;;;;7.32;3.92;;;35.60;34.20;;;;;;5057290;28;20445;-72
2022/07/20 11:24:24;;;;;;;10.90;4.03;;;35.70;34.20;;;;;;5073305;28;20111;-73
2022/07/20 11:26:50;;;;;;;8.77;3.90;;;35.70;33.90;;;;;;5073025;28;20025;-74
2022/07/20 11:29:16;;;;;;;7.68;3.92;;;35.80;34.30;;;;;;5073413;28;20077;-75
2022/07/20 11:31:42;;;;;;;6.25;4.07;;;35.80;35.90;;;;;;5073425;28;20025;-74
2022/07/20 11:34:11;;;;;;;13.00;3.90;;;35.80;38.10;;;;;;5073170;28;20036;-74
2022/07/20 11:36:37;;;;;;;9.05;4.10;;;35.70;39.40;;;;;;5072690;28;20082;-75
2022/07/20 11:39:08;;;;;;;11.95;4.20;;;35.70;40.00;;;;;;5072637;28;20104;-75
2022/07/20 11:41:37;;;;;;;7.95;4.45;;;35.80;40.70;;;;;;5072996;28;20029;-73
2022/07/20 11:44:07;;;;;;;8.02;4.00;;;35.80;40.60;;;;;;5072887;28;20017;-73
2022/07/20 11:46:44;;;;;;;7.30;4.28;;;35.90;41.20;;;;;;5072906;28;20466;-74
2022/07/20 11:49:15;;;;;;;8.30;3.95;;;36.00;41.90;;;;;;5072913;28;20116;-75
2022/07/20 11:51:52;;;;;;;6.63;3.90;;;36.00;42.00;;;;;;5073185;28;20036;-73
2022/07/20 11:54:23;;;;;;;11.30;4.68;;;35.90;42.40;;;;;;5072791;28;20103;-74
2022/07/20 11:56:50;;;;;;;11.75;4.80;;;35.80;42.70;;;;;;5072759;28;20424;-72
2022/07/20 11:59:16;;;;;;;11.48;4.32;;;35.80;42.90;;;;;;5072691;28;20040;-73
2022/07/20 12:01:43;;;;;;;7.53;4.20;;;35.80;42.90;;;;;;5072650;28;20373;-73
2022/07/20 12:04:13;;;;;;;10.18;4.10;;;35.80;42.60;;;;;;5072868;28;20070;-73
2022/07/20 12:06:41;;;;;;;9.15;4.13;;;35.80;42.20;;;;;;5054607;28;20021;-75
2022/07/20 12:09:13;;;;;;;6.65;4.13;;;35.80;42.10;;;;;;5072934;28;20036;-73
2022/07/20 12:11:59;;;;;;;7.70;4.03;;;35.90;42.30;;;;;;5073341;28;20094;-76
2022/07/20 12:14:40;;;;;;;8.73;4.10;;;35.90;42.10;;;;;;5054943;28;20404;-74
2022/07/20 12:17:13;;;;;;;5.30;3.45;;;35.90;41.60;;;;;;5074875;28;20040;-74
2022/07/20 12:19:41;;;;;;;9.85;3.95;;;36.00;41.50;;;;;;5077109;28;20025;-73
2022/07/20 12:22:06;;;;;;;9.35;4.03;;;36.10;41.40;;;;;;5077070;28;20028;-73
2022/07/20 12:25:00;;;;;;;6.78;3.88;;;36.00;41.20;;;;;;5076667;28;20020;-75
2022/07/20 12:27:29;;;;;;;7.82;3.83;;;36.10;41.30;;;;;;5076923;28;20123;-74
2022/07/20 12:29:55;;;;;;;13.23;3.78;;;36.10;40.70;;;;;;5059224;28;20021;-75
2022/07/20 12:32:35;;;;;;;9.15;3.83;;;36.10;40.90;;;;;;5058484;28;20027;-73
2022/07/20 12:35:06;;;;;;;9.65;3.88;;;36.10;40.60;;;;;;5076466;28;20096;-74
2022/07/20 12:37:54;;;;;;;9.30;4.10;;;36.10;40.80;;;;;;5076241;28;20120;-75
2022/07/20 12:40:39;;;;;;;7.13;3.58;;;36.10;41.10;;;;;;5076713;28;20029;-74
2022/07/20 12:43:25;;;;;;;11.00;4.07;;;36.10;40.90;;;;;;5059095;28;20594;-74
2022/07/20 12:45:50;;;;;;;5.13;3.50;;;36.10;40.80;;;;;;5058126;28;20369;-73
2022/07/20 12:48:16;;;;;;;7.05;4.18;;;36.10;40.40;;;;;;5076110;28;20029;-74
2022/07/20 12:50:42;;;;;;;6.78;4.13;;;36.20;40.90;;;;;;5058916;28;20087;-74